Time;durP1;ratioP1;P1;durP2;ratioP2;P2;SDS_P1;SDS_P2;PMS_P1;PMS_P2;Temp;Humidity;BMP_temperature;BMP_pressure;BME280_temperature;BME280_humidity;BME280_pressure;Samples;Min_cycle;Max_cycle;Signal;HPM_P1;HPM_P2
2023/05/31 00:01:58;;;;;;;5.47;3.20;;;20.20;61.70;;;;;;4995996;28;20026;-65
2023/05/31 00:04:24;;;;;;;5.20;3.08;;;20.20;61.70;;;;;;4999682;28;20034;-66
2023/05/31 00:06:50;;;;;;;4.28;2.78;;;20.20;61.70;;;;;;5002161;28;20045;-66
2023/05/31 00:09:15;;;;;;;4.35;2.65;;;20.20;61.70;;;;;;5000076;28;20034;-59
2023/05/31 00:11:41;;;;;;;3.58;2.85;;;20.20;61.70;;;;;;4999103;28;20388;-61
2023/05/31 00:14:07;;;;;;;4.28;2.65;;;20.20;61.70;;;;;;5001248;28;20030;-60
2023/05/31 00:16:32;;;;;;;4.00;3.00;;;20.20;61.70;;;;;;4999336;28;20034;-56
2023/05/31 00:18:57;;;;;;;5.32;2.50;;;20.20;61.70;;;;;;4999346;28;20102;-59
2023/05/31 00:21:23;;;;;;;4.32;2.80;;;20.20;61.70;;;;;;4997837;28;20045;-65
2023/05/31 00:23:49;;;;;;;4.00;2.72;;;20.20;61.70;;;;;;4994424;28;21691;-63
2023/05/31 00:26:14;;;;;;;5.85;2.70;;;20.20;61.70;;;;;;4998328;28;20567;-63
2023/05/31 00:28:40;;;;;;;3.47;2.50;;;20.20;61.70;;;;;;4998877;28;20033;-65
2023/05/31 00:31:05;;;;;;;2.25;1.75;;;20.20;61.70;;;;;;4996410;28;20551;-60
2023/05/31 00:33:31;;;;;;;4.20;2.40;;;20.20;61.70;;;;;;4997806;28;20077;-66
2023/05/31 00:35:56;;;;;;;3.33;2.58;;;20.20;61.70;;;;;;5000246;28;20466;-58
2023/05/31 00:38:22;;;;;;;3.08;2.10;;;20.10;61.60;;;;;;4999648;28;20045;-65
2023/05/31 00:40:47;;;;;;;5.22;2.55;;;20.10;61.60;;;;;;5000544;28;20129;-65
2023/05/31 00:43:13;;;;;;;3.40;2.30;;;20.10;61.60;;;;;;4999972;28;20030;-65
2023/05/31 00:45:38;;;;;;;4.20;2.92;;;20.10;61.70;;;;;;5000769;28;20070;-62
2023/05/31 00:48:04;;;;;;;3.08;2.42;;;20.10;62.20;;;;;;4998144;28;20092;-65
2023/05/31 00:50:30;;;;;;;2.17;1.92;;;20.20;61.60;;;;;;4998792;28;20109;-67
2023/05/31 00:52:57;;;;;;;2.78;2.45;;;20.10;61.60;;;;;;4996685;28;20034;-66
2023/05/31 00:55:24;;;;;;;3.33;2.38;;;20.10;61.60;;;;;;5004030;28;20104;-65
2023/05/31 00:57:50;;;;;;;3.72;2.00;;;20.10;61.60;;;;;;4996278;28;20042;-66
2023/05/31 01:00:16;;;;;;;4.70;2.40;;;20.10;61.60;;;;;;4997454;28;20034;-65
2023/05/31 01:02:43;;;;;;;2.60;2.00;;;20.10;61.60;;;;;;4997195;28;20254;-65
2023/05/31 01:05:09;;;;;;;3.70;2.00;;;20.10;61.60;;;;;;5004430;28;20036;-65
2023/05/31 01:07:35;;;;;;;2.83;2.17;;;20.10;61.60;;;;;;5003834;28;20396;-63
2023/05/31 01:10:01;;;;;;;2.25;2.00;;;20.10;61.60;;;;;;5000388;28;20030;-65
2023/05/31 01:12:45;;;;;;;2.78;1.88;;;20.10;61.60;;;;;;5003417;28;20524;-62
2023/05/31 01:15:24;;;;;;;2.25;2.00;;;20.10;61.60;;;;;;5003817;28;20038;-59
2023/05/31 01:18:09;;;;;;;3.88;2.53;;;20.10;61.60;;;;;;5004547;28;20440;-65
2023/05/31 01:20:35;;;;;;;3.17;1.70;;;20.10;61.60;;;;;;5012118;28;20038;-64
2023/05/31 01:23:25;;;;;;;1.83;1.60;;;20.10;61.60;;;;;;5015834;28;20038;-60
2023/05/31 01:26:25;;;;;;;2.92;2.10;;;20.10;61.50;;;;;;5007471;28;20033;-65
2023/05/31 01:28:53;;;;;;;2.30;1.83;;;20.10;61.60;;;;;;4995132;28;20405;-61
2023/05/31 01:31:21;;;;;;;2.13;1.67;;;20.10;61.60;;;;;;5001166;28;20108;-65
2023/05/31 01:33:48;;;;;;;5.68;1.75;;;20.10;61.50;;;;;;4998874;28;20030;-65
2023/05/31 01:36:14;;;;;;;2.60;1.85;;;20.10;61.60;;;;;;4999971;28;20061;-66
2023/05/31 01:38:39;;;;;;;2.33;1.70;;;20.10;61.60;;;;;;4997839;28;20460;-61
2023/05/31 01:41:06;;;;;;;2.78;1.80;;;20.00;61.50;;;;;;4998057;28;20523;-59
2023/05/31 01:43:33;;;;;;;2.33;1.60;;;20.00;61.50;;;;;;4999266;28;20335;-65
2023/05/31 01:46:00;;;;;;;2.58;2.13;;;20.10;61.60;;;;;;4999588;28;20038;-65
2023/05/31 01:48:27;;;;;;;2.58;1.73;;;20.00;61.50;;;;;;4996520;28;20043;-62
2023/05/31 01:50:54;;;;;;;2.03;1.45;;;20.10;61.50;;;;;;4999895;28;20029;-66
2023/05/31 01:53:19;;;;;;;2.53;1.80;;;20.00;61.50;;;;;;4995899;28;20572;-65
2023/05/31 01:55:46;;;;;;;1.73;1.63;;;20.00;61.50;;;;;;4995727;28;20045;-62
2023/05/31 01:58:12;;;;;;;2.03;1.77;;;20.00;61.50;;;;;;5002062;28;20034;-64
2023/05/31 02:00:40;;;;;;;2.13;1.70;;;20.10;61.50;;;;;;4994746;28;20030;-65
2023/05/31 02:03:06;;;;;;;2.30;1.73;;;20.00;61.50;;;;;;4998594;28;20057;-58
2023/05/31 02:05:32;;;;;;;2.10;1.60;;;20.00;61.50;;;;;;4998509;28;20058;-60
2023/05/31 02:07:57;;;;;;;2.88;1.77;;;20.00;61.50;;;;;;4997617;28;20101;-64
2023/05/31 02:10:23;;;;;;;1.98;1.40;;;20.00;61.50;;;;;;4996077;28;20068;-64
2023/05/31 02:12:54;;;;;;;2.08;1.67;;;20.00;61.50;;;;;;4999022;28;20033;-64
2023/05/31 02:15:20;;;;;;;1.90;1.40;;;20.00;61.50;;;;;;4994417;28;20057;-59
2023/05/31 02:17:50;;;;;;;2.65;1.50;;;20.00;61.60;;;;;;4995654;28;20269;-63
2023/05/31 02:20:17;;;;;;;1.92;1.38;;;20.00;61.60;;;;;;4994453;28;20483;-64
2023/05/31 02:22:44;;;;;;;2.20;1.50;;;20.00;61.50;;;;;;4999303;28;20080;-64
2023/05/31 02:25:11;;;;;;;2.72;1.77;;;20.00;61.50;;;;;;5000812;28;20030;-63
2023/05/31 02:27:37;;;;;;;1.60;1.13;;;20.00;61.60;;;;;;4988221;28;20081;-64
2023/05/31 02:30:06;;;;;;;4.18;1.50;;;20.00;61.60;;;;;;4998127;28;20041;-64
2023/05/31 02:32:37;;;;;;;2.13;1.52;;;20.00;61.50;;;;;;4997586;28;20037;-64
2023/05/31 02:35:09;;;;;;;3.13;1.63;;;20.00;61.60;;;;;;4999305;28;20378;-63
2023/05/31 02:37:36;;;;;;;1.98;1.48;;;20.00;61.60;;;;;;4998242;28;20064;-64
2023/05/31 02:40:09;;;;;;;2.75;1.70;;;20.00;61.60;;;;;;4996193;28;20034;-66
2023/05/31 02:42:40;;;;;;;2.95;1.60;;;20.00;61.60;;;;;;4996677;28;20114;-65
2023/05/31 02:45:06;;;;;;;12.25;1.67;;;20.00;61.60;;;;;;4995650;28;20092;-60
2023/05/31 02:47:32;;;;;;;2.03;1.60;;;20.00;61.60;;;;;;4998568;28;20122;-66
2023/05/31 02:49:58;;;;;;;2.60;1.77;;;20.00;61.60;;;;;;4994030;28;20109;-63
2023/05/31 02:52:24;;;;;;;2.08;1.80;;;20.00;61.60;;;;;;4994029;28;20126;-60
2023/05/31 02:54:50;;;;;;;1.67;1.50;;;20.00;61.60;;;;;;4992823;28;20112;-65
2023/05/31 02:57:15;;;;;;;2.05;1.42;;;20.00;61.60;;;;;;4996673;28;20034;-65
2023/05/31 02:59:43;;;;;;;1.58;1.48;;;19.90;61.60;;;;;;5001162;28;20019;-65
2023/05/31 03:02:09;;;;;;;2.38;1.42;;;20.00;61.60;;;;;;5006487;28;20121;-64
2023/05/31 03:04:35;;;;;;;2.40;1.63;;;20.00;61.60;;;;;;5003075;28;20549;-61
2023/05/31 03:07:01;;;;;;;1.35;1.23;;;20.00;61.60;;;;;;5003102;28;20088;-65
2023/05/31 03:09:26;;;;;;;2.33;1.40;;;19.90;61.50;;;;;;5004340;28;20302;-66
2023/05/31 03:11:51;;;;;;;2.50;1.85;;;20.00;61.60;;;;;;5004498;28;20121;-65
2023/05/31 03:14:17;;;;;;;2.30;1.40;;;20.00;61.50;;;;;;5000752;28;20030;-65
2023/05/31 03:16:43;;;;;;;1.45;1.33;;;20.00;61.50;;;;;;5003001;28;20030;-61
2023/05/31 03:19:09;;;;;;;1.45;1.30;;;20.00;61.60;;;;;;5001202;28;20108;-65
2023/05/31 03:21:35;;;;;;;2.25;1.55;;;19.90;61.50;;;;;;5001422;28;20033;-65
2023/05/31 03:24:01;;;;;;;2.78;1.40;;;19.90;61.50;;;;;;4997881;28;20037;-65
2023/05/31 03:26:26;;;;;;;1.55;1.20;;;19.90;61.50;;;;;;4997253;28;20340;-65
2023/05/31 03:28:52;;;;;;;1.73;1.40;;;19.90;61.50;;;;;;4998211;28;20026;-65
2023/05/31 03:31:18;;;;;;;2.08;1.67;;;19.90;61.50;;;;;;5004666;28;20556;-64
2023/05/31 03:33:44;;;;;;;1.80;1.30;;;19.90;61.50;;;;;;5003202;28;20044;-65
2023/05/31 03:36:10;;;;;;;2.55;1.92;;;19.90;61.50;;;;;;5004559;28;20420;-64
2023/05/31 03:38:35;;;;;;;2.28;1.60;;;19.90;61.40;;;;;;4997985;28;20035;-65
2023/05/31 03:41:01;;;;;;;2.22;1.50;;;20.00;61.50;;;;;;5000802;28;20101;-64
2023/05/31 03:43:26;;;;;;;1.83;1.40;;;20.00;61.50;;;;;;5004494;28;20041;-66
2023/05/31 03:45:52;;;;;;;2.47;1.77;;;20.00;61.40;;;;;;5003522;28;20235;-65
2023/05/31 03:48:17;;;;;;;1.67;1.48;;;20.00;61.40;;;;;;5003786;28;20037;-61
2023/05/31 03:50:43;;;;;;;1.85;1.48;;;20.00;62.00;;;;;;5001323;28;20038;-65
2023/05/31 03:53:09;;;;;;;1.92;1.50;;;19.90;61.30;;;;;;5005160;28;20038;-66
2023/05/31 03:55:36;;;;;;;1.83;1.60;;;19.90;61.30;;;;;;5004631;28;20508;-65
2023/05/31 03:58:02;;;;;;;1.63;1.42;;;19.90;61.30;;;;;;5004771;28;20026;-64
2023/05/31 04:00:28;;;;;;;1.83;1.17;;;19.90;61.30;;;;;;5002283;28;20034;-62
2023/05/31 04:02:53;;;;;;;1.75;1.45;;;20.00;61.40;;;;;;5005831;28;20076;-64
2023/05/31 04:05:19;;;;;;;1.92;1.67;;;19.90;61.30;;;;;;5002860;28;20049;-64
2023/05/31 04:07:45;;;;;;;1.65;1.23;;;19.90;61.20;;;;;;4997836;28;20014;-66
2023/05/31 04:10:10;;;;;;;2.38;1.40;;;19.90;61.30;;;;;;5000300;28;20126;-64
2023/05/31 04:12:36;;;;;;;1.45;1.35;;;20.00;61.20;;;;;;4999033;28;20463;-65
2023/05/31 04:15:01;;;;;;;3.78;1.77;;;20.00;61.30;;;;;;4996285;28;20062;-65
2023/05/31 04:17:27;;;;;;;2.13;1.83;;;19.90;61.20;;;;;;4994203;28;20042;-60
2023/05/31 04:19:52;;;;;;;1.85;1.40;;;20.00;61.30;;;;;;4993426;28;20049;-65
2023/05/31 04:22:18;;;;;;;1.58;1.40;;;19.90;61.20;;;;;;4993224;28;20030;-60
2023/05/31 04:24:43;;;;;;;2.17;1.15;;;19.90;61.30;;;;;;4997272;28;20116;-64
2023/05/31 04:27:09;;;;;;;3.40;1.70;;;19.90;61.90;;;;;;4996940;28;20029;-65
2023/05/31 04:29:34;;;;;;;2.20;1.58;;;19.90;61.30;;;;;;4998403;28;20381;-65
2023/05/31 04:32:00;;;;;;;1.63;1.40;;;19.90;61.30;;;;;;4999735;28;20031;-61
2023/05/31 04:34:26;;;;;;;1.90;1.45;;;19.90;61.30;;;;;;4999570;28;20109;-63
2023/05/31 04:36:52;;;;;;;1.48;1.25;;;20.00;61.20;;;;;;5000756;28;20026;-65
2023/05/31 04:39:22;;;;;;;2.47;1.67;;;20.00;61.00;;;;;;4999089;28;20026;-63
2023/05/31 04:41:48;;;;;;;3.78;1.50;;;20.00;61.10;;;;;;4998265;28;20133;-63
2023/05/31 04:44:14;;;;;;;2.10;1.45;;;20.10;61.00;;;;;;4998855;28;20120;-65
2023/05/31 04:46:43;;;;;;;3.88;1.40;;;20.10;60.90;;;;;;4995336;28;20146;-64
2023/05/31 04:49:09;;;;;;;2.42;1.17;;;20.10;60.80;;;;;;4999753;28;20040;-64
2023/05/31 04:51:35;;;;;;;2.00;1.45;;;20.20;60.90;;;;;;4994816;28;20493;-64
2023/05/31 04:54:01;;;;;;;1.88;1.50;;;20.20;60.90;;;;;;4993632;28;20049;-65
2023/05/31 04:56:27;;;;;;;2.20;1.60;;;20.20;60.90;;;;;;4997845;28;20679;-64
2023/05/31 04:58:52;;;;;;;1.45;1.20;;;20.20;60.90;;;;;;4997444;28;20401;-61
2023/05/31 05:01:18;;;;;;;3.00;1.48;;;20.20;60.90;;;;;;4999513;28;20037;-59
2023/05/31 05:03:44;;;;;;;2.92;1.20;;;20.20;60.90;;;;;;4994252;28;20034;-67
2023/05/31 05:06:15;;;;;;;2.63;1.60;;;20.20;60.90;;;;;;4997714;28;20026;-64
2023/05/31 05:08:41;;;;;;;3.15;1.88;;;20.20;60.90;;;;;;5000832;28;20121;-64
2023/05/31 05:11:07;;;;;;;2.17;1.73;;;20.20;60.90;;;;;;4998781;28;20046;-64
2023/05/31 05:13:32;;;;;;;2.85;1.45;;;20.20;60.90;;;;;;4997185;28;20042;-63
2023/05/31 05:15:58;;;;;;;2.45;1.52;;;20.30;60.90;;;;;;5000312;28;20503;-63
2023/05/31 05:18:23;;;;;;;3.75;1.67;;;20.20;60.90;;;;;;4997980;28;20492;-59
2023/05/31 05:20:49;;;;;;;5.40;1.50;;;20.20;60.90;;;;;;4994739;28;20030;-63
2023/05/31 05:23:15;;;;;;;3.33;1.20;;;20.30;61.00;;;;;;4996661;28;20030;-64
2023/05/31 05:25:40;;;;;;;3.67;1.30;;;20.20;60.90;;;;;;4996919;28;20121;-64
2023/05/31 05:28:05;;;;;;;3.42;2.10;;;20.30;61.20;;;;;;4996937;28;20476;-59
2023/05/31 05:30:32;;;;;;;2.75;2.15;;;20.30;61.30;;;;;;4997740;28;20025;-64
2023/05/31 05:32:57;;;;;;;3.97;2.42;;;20.40;61.40;;;;;;4998900;28;20114;-63
2023/05/31 05:35:23;;;;;;;3.63;2.22;;;20.40;61.40;;;;;;4999988;28;20468;-58
2023/05/31 05:37:48;;;;;;;6.43;2.00;;;20.40;61.50;;;;;;5003934;28;20349;-63
2023/05/31 05:40:14;;;;;;;6.35;2.47;;;20.40;61.50;;;;;;4996222;28;20027;-56
2023/05/31 05:42:40;;;;;;;3.40;2.17;;;20.50;61.60;;;;;;4995161;28;20042;-63
2023/05/31 05:45:07;;;;;;;3.63;2.92;;;20.50;61.60;;;;;;4996897;28;20030;-60
2023/05/31 05:47:33;;;;;;;14.52;2.30;;;20.50;61.70;;;;;;4995587;28;20066;-63
2023/05/31 05:49:59;;;;;;;5.53;2.65;;;20.50;61.60;;;;;;4999710;28;20266;-63
2023/05/31 05:52:25;;;;;;;4.35;2.10;;;20.50;61.70;;;;;;4988299;28;20042;-59
2023/05/31 05:54:52;;;;;;;4.65;2.42;;;20.50;62.20;;;;;;4996539;28;20042;-61
2023/05/31 05:57:18;;;;;;;5.00;2.38;;;20.50;61.60;;;;;;4998441;28;20034;-64
2023/05/31 05:59:44;;;;;;;7.95;2.00;;;20.50;61.60;;;;;;4999227;28;20520;-60
2023/05/31 06:02:10;;;;;;;5.38;2.70;;;20.50;61.60;;;;;;4996777;28;20026;-63
2023/05/31 06:04:36;;;;;;;4.38;1.77;;;20.50;61.70;;;;;;4995351;28;20026;-63
2023/05/31 06:07:01;;;;;;;4.32;2.70;;;20.50;61.60;;;;;;4998648;28;20030;-58
2023/05/31 06:09:27;;;;;;;4.88;2.10;;;20.50;61.50;;;;;;4998564;28;20030;-58
2023/05/31 06:11:52;;;;;;;3.58;2.53;;;20.50;61.60;;;;;;4993676;28;20037;-63
2023/05/31 06:14:18;;;;;;;3.55;2.65;;;20.50;61.50;;;;;;4994614;28;20489;-62
2023/05/31 06:16:43;;;;;;;6.13;3.00;;;20.50;61.60;;;;;;4999232;28;20120;-63
2023/05/31 06:19:09;;;;;;;5.63;3.20;;;20.50;61.70;;;;;;4984463;28;20038;-63
2023/05/31 06:21:35;;;;;;;4.30;2.67;;;20.50;61.70;;;;;;5004587;28;20068;-63
2023/05/31 06:24:02;;;;;;;3.70;2.85;;;20.50;61.60;;;;;;4994785;28;20029;-63
2023/05/31 06:26:27;;;;;;;4.43;2.63;;;20.50;61.60;;;;;;4997649;28;20034;-59
2023/05/31 06:28:53;;;;;;;4.85;2.92;;;20.50;61.50;;;;;;5001162;28;20036;-63
2023/05/31 06:31:18;;;;;;;4.53;3.08;;;20.50;61.50;;;;;;4998102;28;20038;-62
2023/05/31 06:33:44;;;;;;;5.53;2.83;;;20.50;61.30;;;;;;4994883;28;20033;-55
2023/05/31 06:36:10;;;;;;;3.15;2.40;;;20.40;61.10;;;;;;4998575;28;20045;-63
2023/05/31 06:38:35;;;;;;;5.60;2.60;;;20.50;61.20;;;;;;4996770;28;20030;-61
2023/05/31 06:41:01;;;;;;;4.72;2.42;;;20.50;61.10;;;;;;4997059;28;20045;-62
2023/05/31 06:43:26;;;;;;;4.63;2.53;;;20.50;61.00;;;;;;4995764;28;20038;-65
2023/05/31 06:45:52;;;;;;;3.08;2.67;;;20.50;61.00;;;;;;4996829;28;20038;-59
2023/05/31 06:48:17;;;;;;;3.85;2.42;;;20.50;60.90;;;;;;4998624;28;20456;-61
2023/05/31 06:50:43;;;;;;;4.28;2.10;;;20.50;60.80;;;;;;4990575;28;20708;-64
2023/05/31 06:53:09;;;;;;;5.53;3.20;;;20.50;60.90;;;;;;4999367;28;20038;-63
2023/05/31 06:55:35;;;;;;;8.52;4.55;;;20.50;60.90;;;;;;4994404;28;20651;-62
2023/05/31 06:58:01;;;;;;;16.42;6.70;;;20.50;61.10;;;;;;4997697;28;20109;-63
2023/05/31 07:00:27;;;;;;;12.95;6.70;;;20.50;61.10;;;;;;4974001;28;20030;-62
2023/05/31 07:02:52;;;;;;;17.02;6.82;;;20.50;61.40;;;;;;4969383;28;20022;-64
2023/05/31 07:05:18;;;;;;;13.25;6.28;;;20.50;61.50;;;;;;5001876;28;20027;-59
2023/05/31 07:07:44;;;;;;;14.90;6.22;;;20.50;61.60;;;;;;4998010;28;20534;-64
2023/05/31 07:10:09;;;;;;;16.45;5.88;;;20.50;61.60;;;;;;5001148;28;20033;-64
2023/05/31 07:12:35;;;;;;;17.45;7.18;;;20.50;61.60;;;;;;4995750;28;20520;-64
2023/05/31 07:15:00;;;;;;;12.63;6.07;;;20.50;61.70;;;;;;4996449;28;20194;-57
2023/05/31 07:17:26;;;;;;;14.30;5.93;;;20.50;61.80;;;;;;4996692;28;20038;-64
2023/05/31 07:19:51;;;;;;;17.65;7.18;;;20.50;62.40;;;;;;4993553;28;20517;-63
2023/05/31 07:22:17;;;;;;;14.82;5.65;;;20.40;61.80;;;;;;4996591;28;20141;-63
2023/05/31 07:24:43;;;;;;;14.50;5.80;;;20.50;61.80;;;;;;4997023;28;20027;-63
2023/05/31 07:27:10;;;;;;;13.65;6.15;;;20.40;61.70;;;;;;4996280;28;20180;-63
2023/05/31 07:29:35;;;;;;;16.20;6.07;;;20.50;61.70;;;;;;4995597;28;20393;-64
2023/05/31 07:32:01;;;;;;;11.65;5.75;;;20.40;61.70;;;;;;4993517;28;20038;-63
2023/05/31 07:34:26;;;;;;;13.63;5.28;;;20.40;61.60;;;;;;4997071;28;20538;-63
2023/05/31 07:36:52;;;;;;;14.00;5.30;;;20.40;61.60;;;;;;4993847;28;20081;-63
2023/05/31 07:39:18;;;;;;;14.05;5.60;;;20.40;61.60;;;;;;4994235;28;20426;-64
2023/05/31 07:41:43;;;;;;;13.73;5.63;;;20.40;61.60;;;;;;4994572;28;20030;-63
2023/05/31 07:44:09;;;;;;;10.85;5.45;;;20.40;61.50;;;;;;4997211;28;20497;-62
2023/05/31 07:46:35;;;;;;;14.45;6.43;;;20.40;61.50;;;;;;5001308;28;20034;-60
2023/05/31 07:49:02;;;;;;;10.13;4.80;;;20.40;61.40;;;;;;4995844;28;20105;-64
2023/05/31 07:51:30;;;;;;;10.02;4.65;;;20.40;61.30;;;;;;4997064;28;20522;-61
2023/05/31 07:53:56;;;;;;;12.55;4.65;;;20.40;61.30;;;;;;4991598;28;20142;-64
2023/05/31 07:56:22;;;;;;;9.15;5.22;;;20.40;61.20;;;;;;5000549;28;20086;-64
2023/05/31 07:58:47;;;;;;;9.30;4.20;;;20.40;61.30;;;;;;4999612;28;20402;-60
2023/05/31 08:01:13;;;;;;;8.73;4.32;;;20.40;61.20;;;;;;4995848;28;20052;-62
2023/05/31 08:03:40;;;;;;;11.18;5.00;;;20.40;61.20;;;;;;5000713;28;20129;-63
2023/05/31 08:06:05;;;;;;;9.82;4.63;;;20.40;61.20;;;;;;5001267;28;20026;-64
2023/05/31 08:08:32;;;;;;;8.32;3.90;;;20.30;61.10;;;;;;4998865;28;20041;-63
2023/05/31 08:10:58;;;;;;;9.00;4.40;;;20.30;61.00;;;;;;4995682;28;20030;-64
2023/05/31 08:13:24;;;;;;;7.00;3.92;;;20.40;61.10;;;;;;4997289;28;20030;-63
2023/05/31 08:15:50;;;;;;;9.88;4.68;;;20.30;61.10;;;;;;4994224;28;20571;-61
2023/05/31 08:18:15;;;;;;;9.43;5.47;;;20.30;61.00;;;;;;4999128;28;20034;-64
2023/05/31 08:20:41;;;;;;;7.13;4.10;;;20.30;61.00;;;;;;4998943;28;20084;-63
2023/05/31 08:23:07;;;;;;;9.85;3.80;;;20.30;61.10;;;;;;5000059;28;20090;-64
2023/05/31 08:25:32;;;;;;;8.23;3.83;;;20.30;60.90;;;;;;5002714;28;20038;-56
2023/05/31 08:27:58;;;;;;;7.70;3.72;;;20.30;60.90;;;;;;4999363;28;20508;-63
2023/05/31 08:30:23;;;;;;;7.70;3.92;;;20.30;60.90;;;;;;4999419;28;20060;-62
2023/05/31 08:32:49;;;;;;;6.68;4.20;;;20.30;60.90;;;;;;5002334;28;20066;-60
2023/05/31 08:35:14;;;;;;;8.38;4.35;;;20.30;60.90;;;;;;5000840;28;20129;-63
2023/05/31 08:37:40;;;;;;;6.80;3.53;;;20.30;60.90;;;;;;5001052;28;20058;-63
2023/05/31 08:40:06;;;;;;;5.20;2.78;;;20.30;60.90;;;;;;4999427;28;20035;-61
2023/05/31 08:42:59;;;;;;;5.35;3.13;;;20.30;60.90;;;;;;5002143;28;20037;-63
2023/05/31 08:45:28;;;;;;;7.13;3.17;;;20.30;60.90;;;;;;5004724;28;20065;-64
2023/05/31 08:48:02;;;;;;;5.80;3.20;;;20.30;60.90;;;;;;4999951;28;20030;-63
2023/05/31 08:50:29;;;;;;;6.97;4.20;;;20.30;60.90;;;;;;4997211;28;20456;-62
2023/05/31 08:52:56;;;;;;;8.93;3.65;;;20.30;60.90;;;;;;4993615;28;20053;-64
2023/05/31 08:55:23;;;;;;;9.25;3.30;;;20.30;60.90;;;;;;4998377;28;20121;-63
2023/05/31 08:57:50;;;;;;;5.95;3.28;;;20.20;60.90;;;;;;4996489;28;20033;-60
2023/05/31 09:00:17;;;;;;;4.72;2.78;;;20.20;60.90;;;;;;4996963;28;20473;-59
2023/05/31 09:02:44;;;;;;;4.53;2.72;;;20.30;61.10;;;;;;5001674;28;20517;-65
2023/05/31 09:05:10;;;;;;;5.50;2.95;;;20.20;61.10;;;;;;4999149;28;20610;-63
2023/05/31 09:07:37;;;;;;;6.05;3.28;;;20.20;61.10;;;;;;4997767;28;20592;-64
2023/05/31 09:10:05;;;;;;;4.13;2.97;;;20.30;61.10;;;;;;4998694;28;20108;-63
2023/05/31 09:12:30;;;;;;;3.65;2.53;;;20.20;61.10;;;;;;4996468;28;20040;-63
2023/05/31 09:14:56;;;;;;;6.38;3.20;;;20.20;61.10;;;;;;4996536;28;20038;-63
2023/05/31 09:17:22;;;;;;;4.80;2.47;;;20.30;61.10;;;;;;4998626;28;20038;-64
2023/05/31 09:19:53;;;;;;;6.05;2.67;;;20.20;61.00;;;;;;4996347;28;20511;-63
2023/05/31 09:22:21;;;;;;;3.75;2.55;;;20.30;61.10;;;;;;4995986;28;20033;-60
2023/05/31 09:25:00;;;;;;;5.75;2.78;;;20.20;61.10;;;;;;4998219;28;20146;-64
2023/05/31 09:27:33;;;;;;;4.88;2.53;;;20.20;61.00;;;;;;4997307;28;20026;-64
2023/05/31 09:30:03;;;;;;;4.78;2.83;;;20.20;61.00;;;;;;4995345;28;20038;-65
2023/05/31 09:32:29;;;;;;;4.43;2.58;;;20.30;61.10;;;;;;4998776;28;20037;-59
2023/05/31 09:35:13;;;;;;;4.38;2.15;;;20.20;61.00;;;;;;5004509;28;20447;-64
2023/05/31 09:37:49;;;;;;;3.60;2.30;;;20.20;61.00;;;;;;4995260;28;20058;-65
2023/05/31 09:40:25;;;;;;;4.25;2.15;;;20.20;61.00;;;;;;4998584;28;20034;-65
2023/05/31 09:42:52;;;;;;;5.30;2.55;;;20.20;60.90;;;;;;4996210;28;20466;-64
2023/05/31 09:45:19;;;;;;;4.50;2.67;;;20.20;60.90;;;;;;4994898;28;20031;-64
2023/05/31 09:47:46;;;;;;;5.57;2.55;;;20.20;61.00;;;;;;4991073;28;20087;-62
2023/05/31 09:50:15;;;;;;;3.67;2.33;;;20.20;60.90;;;;;;4997310;28;20460;-64
2023/05/31 09:52:43;;;;;;;3.30;2.30;;;20.20;61.00;;;;;;4999006;28;20049;-65
2023/05/31 09:55:11;;;;;;;3.88;1.98;;;20.20;61.00;;;;;;5000915;28;20505;-64
2023/05/31 09:57:40;;;;;;;3.03;2.00;;;20.20;61.00;;;;;;4996813;28;20511;-64
2023/05/31 10:00:15;;;;;;;3.35;2.25;;;20.20;61.00;;;;;;4993462;28;20034;-63
2023/05/31 10:02:51;;;;;;;3.00;1.98;;;20.20;61.00;;;;;;4998844;28;20037;-65
2023/05/31 10:05:18;;;;;;;5.13;2.25;;;20.20;61.00;;;;;;4995603;28;20030;-64
2023/05/31 10:07:46;;;;;;;3.78;2.03;;;20.20;61.70;;;;;;4994735;28;20425;-62
2023/05/31 10:10:11;;;;;;;3.38;1.90;;;20.20;61.00;;;;;;5000318;28;20049;-58
2023/05/31 10:12:45;;;;;;;2.92;1.88;;;20.20;61.10;;;;;;4995869;28;20038;-62
2023/05/31 10:15:13;;;;;;;5.00;2.22;;;20.20;61.00;;;;;;4992701;28;20041;-60
2023/05/31 10:17:54;;;;;;;3.95;2.10;;;20.20;61.00;;;;;;4994501;28;20121;-67
2023/05/31 10:20:21;;;;;;;2.70;1.85;;;20.20;61.00;;;;;;4996823;28;20065;-64
2023/05/31 10:22:49;;;;;;;3.95;2.50;;;20.20;61.00;;;;;;4996347;28;20026;-64
2023/05/31 10:25:30;;;;;;;3.35;2.10;;;20.20;61.00;;;;;;4996338;28;20034;-64
2023/05/31 10:28:00;;;;;;;5.78;2.30;;;20.20;61.10;;;;;;4997129;28;20030;-63
2023/05/31 10:30:31;;;;;;;2.53;1.85;;;20.20;61.10;;;;;;4997847;28;20096;-64
2023/05/31 10:33:07;;;;;;;3.65;2.10;;;20.20;61.10;;;;;;4997867;28;20037;-63
2023/05/31 10:35:33;;;;;;;2.33;1.65;;;20.20;61.10;;;;;;4994441;28;20366;-64
2023/05/31 10:38:00;;;;;;;2.90;1.80;;;20.20;61.10;;;;;;4993075;28;20030;-64
2023/05/31 10:40:49;;;;;;;4.03;1.77;;;20.20;61.10;;;;;;4995574;28;20066;-64
2023/05/31 10:43:23;;;;;;;4.30;1.63;;;20.20;61.10;;;;;;5000659;28;20030;-64
2023/05/31 10:45:53;;;;;;;4.35;1.70;;;20.20;61.10;;;;;;4990602;28;20129;-66
2023/05/31 10:48:52;;;;;;;2.63;1.70;;;20.20;61.10;;;;;;4994887;28;20036;-64
2023/05/31 10:51:18;;;;;;;3.65;1.60;;;20.20;61.10;;;;;;4995943;28;20034;-64
2023/05/31 10:53:48;;;;;;;2.90;1.60;;;20.20;61.00;;;;;;4999122;28;20034;-64
2023/05/31 10:56:14;;;;;;;2.72;1.67;;;20.20;61.10;;;;;;4994543;28;20405;-65
2023/05/31 10:58:42;;;;;;;3.95;1.52;;;20.20;61.10;;;;;;4994111;28;20053;-63
2023/05/31 11:01:18;;;;;;;2.05;1.85;;;20.20;61.10;;;;;;4994199;28;20036;-65
2023/05/31 11:03:52;;;;;;;4.50;1.98;;;20.20;61.10;;;;;;4997637;28;20034;-64
2023/05/31 11:06:23;;;;;;;2.78;1.70;;;20.20;61.10;;;;;;4989690;28;20555;-65
2023/05/31 11:09:11;;;;;;;2.83;1.45;;;20.20;61.10;;;;;;4997452;28;20034;-64
2023/05/31 11:11:39;;;;;;;1.83;1.40;;;20.20;61.10;;;;;;4980605;28;20034;-65
2023/05/31 11:14:25;;;;;;;2.05;1.58;;;20.20;61.10;;;;;;4994976;28;20058;-64
2023/05/31 11:16:53;;;;;;;2.25;1.27;;;20.20;61.10;;;;;;4996406;28;20083;-62
2023/05/31 11:19:20;;;;;;;2.63;1.67;;;20.20;61.00;;;;;;5001611;28;20022;-64
2023/05/31 11:21:59;;;;;;;2.13;1.15;;;20.20;61.10;;;;;;5000377;28;20360;-64
2023/05/31 11:24:33;;;;;;;2.97;1.55;;;20.20;61.10;;;;;;4999388;28;20331;-64
2023/05/31 11:27:00;;;;;;;2.40;1.60;;;20.20;61.00;;;;;;4995467;28;20030;-64
2023/05/31 11:29:44;;;;;;;2.25;1.33;;;20.20;61.00;;;;;;4997900;28;20035;-64
2023/05/31 11:32:11;;;;;;;2.78;1.40;;;20.20;61.00;;;;;;4999712;28;20124;-61
2023/05/31 11:34:56;;;;;;;1.45;1.25;;;20.20;61.10;;;;;;5003162;28;20039;-61
2023/05/31 11:37:31;;;;;;;2.17;1.60;;;20.20;61.70;;;;;;5003676;28;20121;-65
2023/05/31 11:40:05;;;;;;;3.30;1.42;;;20.20;61.10;;;;;;5003176;28;20045;-64
2023/05/31 11:42:32;;;;;;;2.22;1.10;;;20.20;61.00;;;;;;4993306;28;20054;-63
2023/05/31 11:45:03;;;;;;;2.33;1.45;;;20.20;61.10;;;;;;5000721;28;20045;-64
2023/05/31 11:47:33;;;;;;;1.00;0.90;;;20.20;61.00;;;;;;5005816;28;20042;-63
2023/05/31 11:49:59;;;;;;;1.63;1.10;;;20.20;61.00;;;;;;4999597;28;20121;-65
2023/05/31 11:52:24;;;;;;;2.42;1.10;;;20.20;61.10;;;;;;5000154;28;20157;-64
2023/05/31 11:54:50;;;;;;;1.35;1.00;;;20.20;61.00;;;;;;4998430;28;20034;-65
2023/05/31 11:57:17;;;;;;;3.90;1.40;;;20.20;61.00;;;;;;5000114;28;20045;-64
2023/05/31 11:59:43;;;;;;;2.20;1.45;;;20.20;61.00;;;;;;5004997;28;20447;-65
2023/05/31 12:02:10;;;;;;;1.40;1.13;;;20.20;61.10;;;;;;4999732;28;20053;-65
2023/05/31 12:04:38;;;;;;;2.85;1.20;;;20.20;61.00;;;;;;4999816;28;20116;-65
2023/05/31 12:07:05;;;;;;;1.92;1.40;;;20.20;61.10;;;;;;4998770;28;20322;-65
2023/05/31 12:09:33;;;;;;;1.30;1.20;;;20.20;61.00;;;;;;5001436;28;20504;-64
2023/05/31 12:12:02;;;;;;;2.67;1.48;;;20.20;61.00;;;;;;5002173;28;20035;-65
2023/05/31 12:14:28;;;;;;;2.13;1.20;;;20.30;61.00;;;;;;4994557;28;20041;-63
2023/05/31 12:16:54;;;;;;;1.75;1.20;;;20.20;61.00;;;;;;4997955;28;20034;-64
2023/05/31 12:19:20;;;;;;;2.22;1.42;;;20.20;60.90;;;;;;4998589;28;20058;-64
2023/05/31 12:21:46;;;;;;;2.05;1.13;;;20.20;61.00;;;;;;4999463;28;20069;-64
2023/05/31 12:24:14;;;;;;;1.85;1.30;;;20.20;60.90;;;;;;4996560;28;20037;-64
2023/05/31 12:26:42;;;;;;;1.52;1.15;;;20.20;60.90;;;;;;4996704;28;20087;-64
2023/05/31 12:29:08;;;;;;;3.33;1.38;;;20.20;61.00;;;;;;4998074;28;20038;-63
2023/05/31 12:31:36;;;;;;;6.57;1.95;;;20.20;60.90;;;;;;4998442;28;20488;-61
2023/05/31 12:34:04;;;;;;;2.65;1.40;;;20.20;60.90;;;;;;5000686;28;20499;-62
2023/05/31 12:36:38;;;;;;;6.30;2.35;;;20.20;60.90;;;;;;4996344;28;20035;-63
2023/05/31 12:39:08;;;;;;;8.32;2.33;;;20.20;61.10;;;;;;4999509;28;20034;-63
2023/05/31 12:41:33;;;;;;;5.75;2.40;;;20.30;61.40;;;;;;4994667;28;20511;-59
2023/05/31 12:43:59;;;;;;;5.13;2.10;;;20.30;61.50;;;;;;4995296;28;20031;-64
2023/05/31 12:46:24;;;;;;;6.70;2.25;;;20.30;61.80;;;;;;5000433;28;20052;-63
2023/05/31 12:48:50;;;;;;;5.70;2.28;;;20.30;61.90;;;;;;4994167;28;20032;-63